Terminal Aerodrome Forecast
Issued by NWS

Home | Current Version | Previous Version | Text Only | Print | Product List | Glossary On
Versions: 1 2 3 4 5 6 7 8 9 10 11 12 13 14 15 16 17 18 19 20
905
FTUS46 KSGX 260905 AAA
TAFSNA
TAF AMD
KSNA 260905Z 2609/2706 20007KT P6SM SCT025 OVC040
     FM261200 21005KT P6SM -DZ OVC025
     FM261600 21005KT P6SM OVC035
     FM262000 22008KT P6SM SCT040
     FM270100 VRB04KT P6SM SCT020=

USA.gov is the U.S. government's official web portal to all federal, state and local government web resources and services.